Time;durP1;ratioP1;P1;durP2;ratioP2;P2;SDS_P1;SDS_P2;PMS_P1;PMS_P2;Temp;Humidity;BMP_temperature;BMP_pressure;BME280_temperature;BME280_humidity;BME280_pressure;Samples;Min_cycle;Max_cycle;Signal;HPM_P1;HPM_P2
2023/12/16 00:01:10;;;;;;;64.20;57.30;;;;;;;-0.33;100.00;99610.30;106723;1270;25265;-79
2023/12/16 00:03:39;;;;;;;64.60;57.70;;;;;;;-0.28;100.00;99606.40;106864;1270;22589;-79
2023/12/16 00:06:07;;;;;;;61.70;55.40;;;;;;;-0.25;100.00;99610.42;106778;1281;23290;-78
2023/12/16 00:08:35;;;;;;;59.70;53.70;;;;;;;-0.22;100.00;99610.42;106630;1278;25486;-80
2023/12/16 00:11:03;;;;;;;60.10;53.90;;;;;;;-0.21;100.00;99614.14;106791;1278;25380;-77
2023/12/16 00:13:32;;;;;;;61.10;54.60;;;;;;;-0.20;100.00;99610.40;106541;1266;22554;-78
2023/12/16 00:16:00;;;;;;;55.30;49.80;;;;;;;-0.17;100.00;99613.29;106843;1274;25470;-78
2023/12/16 00:18:28;;;;;;;56.30;50.80;;;;;;;-0.13;100.00;99612.81;106868;1281;22671;-79
2023/12/16 00:20:56;;;;;;;60.20;54.20;;;;;;;-0.09;100.00;99613.75;106896;1281;23152;-79
2023/12/16 00:23:24;;;;;;;54.40;48.90;;;;;;;-0.07;100.00;99617.27;106707;1281;22774;-79
2023/12/16 00:25:52;;;;;;;52.20;46.80;;;;;;;-0.07;100.00;99619.55;106400;1281;22785;-79
2023/12/16 00:28:20;;;;;;;49.00;44.00;;;;;;;-0.07;100.00;99611.20;106832;1275;22615;-80
2023/12/16 00:30:48;;;;;;;50.40;45.30;;;;;;;-0.04;100.00;99606.41;106694;1281;22571;-79
2023/12/16 00:33:17;;;;;;;48.70;43.90;;;;;;;-0.01;100.00;99613.86;106742;1270;22536;-79
2023/12/16 00:35:45;;;;;;;56.60;50.90;;;;;;;-0.00;100.00;99611.65;106716;1266;22663;-79
2023/12/16 00:38:13;;;;;;;51.50;46.40;;;;;;;0.01;100.00;99615.61;106731;1281;22587;-79
2023/12/16 00:40:41;;;;;;;51.30;46.30;;;;;;;0.01;100.00;99621.23;106740;1275;22548;-79
2023/12/16 00:43:09;;;;;;;49.80;44.90;;;;;;;0.02;100.00;99620.67;106739;1264;22669;-79
2023/12/16 00:45:37;;;;;;;44.90;40.50;;;;;;;0.06;100.00;99621.67;106449;1269;22543;-78
2023/12/16 00:48:05;;;;;;;48.80;43.70;;;;;;;0.09;100.00;99626.64;106393;1278;22641;-79
2023/12/16 00:50:33;;;;;;;48.00;43.30;;;;;;;0.12;100.00;99633.30;106414;1270;25340;-77
2023/12/16 00:53:01;;;;;;;51.70;46.80;;;;;;;0.14;100.00;99635.81;106758;1278;22555;-77
2023/12/16 00:55:29;;;;;;;50.40;45.30;;;;;;;0.16;100.00;99639.13;106446;1281;25398;-79
2023/12/16 00:57:57;;;;;;;50.60;45.70;;;;;;;0.15;100.00;99636.80;106825;1267;22544;-80
2023/12/16 01:00:25;;;;;;;48.40;43.50;;;;;;;0.16;100.00;99643.08;106890;1269;24390;-78
2023/12/16 01:02:53;;;;;;;43.00;38.80;;;;;;;0.19;100.00;99648.70;106779;1268;23227;-78
2023/12/16 01:05:21;;;;;;;43.70;39.40;;;;;;;0.21;100.00;99632.98;106841;1275;22642;-79
2023/12/16 01:07:50;;;;;;;46.40;41.80;;;;;;;0.24;100.00;99629.99;106537;1281;25389;-77
2023/12/16 01:10:18;;;;;;;47.00;42.60;;;;;;;0.26;100.00;99633.34;106532;1281;22683;-77
2023/12/16 01:12:46;;;;;;;43.90;39.60;;;;;;;0.25;100.00;99629.91;106392;1278;24225;-77
2023/12/16 01:15:15;;;;;;;42.40;38.30;;;;;;;0.28;100.00;99625.67;106350;1266;24393;-77
2023/12/16 01:17:43;;;;;;;38.90;35.10;;;;;;;0.30;100.00;99626.46;106669;1268;22553;-77
2023/12/16 01:20:11;;;;;;;41.40;37.40;;;;;;;0.32;100.00;99630.99;106410;1269;22550;-77
2023/12/16 01:22:39;;;;;;;41.10;36.90;;;;;;;0.31;100.00;99636.58;106347;1271;22708;-78
2023/12/16 01:25:07;;;;;;;36.80;33.20;;;;;;;0.30;100.00;99637.71;106443;1267;22553;-78
2023/12/16 01:27:35;;;;;;;38.10;34.50;;;;;;;0.33;100.00;99641.34;106429;1258;22554;-79
2023/12/16 01:30:03;;;;;;;36.80;33.30;;;;;;;0.35;100.00;99639.44;106813;1281;22546;-77
2023/12/16 01:32:32;;;;;;;38.80;34.90;;;;;;;0.38;100.00;99640.69;106556;1259;22556;-77
2023/12/16 01:35:00;;;;;;;38.20;34.50;;;;;;;0.36;100.00;99631.33;106438;1275;22552;-78
2023/12/16 01:37:29;;;;;;;35.90;32.50;;;;;;;0.35;100.00;99627.35;106380;1281;22537;-78
2023/12/16 01:39:59;;;;;;;36.50;32.80;;;;;;;0.36;100.00;99631.44;106357;1278;23891;-78
2023/12/16 01:42:27;;;;;;;35.70;32.20;;;;;;;0.37;100.00;99629.66;106671;1268;22663;-78
2023/12/16 01:44:55;;;;;;;36.20;32.60;;;;;;;0.38;100.00;99623.55;106335;1281;22523;-78
2023/12/16 01:47:23;;;;;;;36.70;33.20;;;;;;;0.41;100.00;99620.61;106341;1271;24341;-78
2023/12/16 01:49:52;;;;;;;41.50;37.40;;;;;;;0.42;100.00;99621.63;106495;1274;25124;-78
2023/12/16 01:52:20;;;;;;;38.20;34.60;;;;;;;0.43;100.00;99623.36;107108;1278;23346;-77
2023/12/16 01:54:49;;;;;;;39.10;35.40;;;;;;;0.43;100.00;99620.70;106393;1269;25379;-78
2023/12/16 01:57:17;;;;;;;40.50;36.90;;;;;;;0.42;100.00;99623.58;106734;1278;25498;-78
2023/12/16 01:59:45;;;;;;;37.90;34.00;;;;;;;0.41;100.00;99621.66;106753;1265;24291;-77
2023/12/16 02:02:14;;;;;;;38.60;35.00;;;;;;;0.44;100.00;99626.05;106456;1266;23923;-78
2023/12/16 02:04:42;;;;;;;41.00;37.30;;;;;;;0.44;100.00;99631.23;106420;1281;22574;-79
2023/12/16 02:07:10;;;;;;;39.20;35.40;;;;;;;0.40;100.00;99632.43;106864;1281;26629;-77
2023/12/16 02:09:38;;;;;;;38.30;34.80;;;;;;;0.39;100.00;99633.07;107024;1269;22532;-79
2023/12/16 02:12:06;;;;;;;39.70;35.90;;;;;;;0.43;100.00;99638.65;107232;1273;24208;-75
2023/12/16 02:14:34;;;;;;;36.20;32.80;;;;;;;0.46;100.00;99643.08;106694;1280;23941;-79
2023/12/16 02:17:02;;;;;;;39.30;35.60;;;;;;;0.47;100.00;99643.30;107258;1281;22656;-76
2023/12/16 02:19:33;;;;;;;39.60;35.80;;;;;;;0.47;100.00;99644.33;106622;1281;22591;-77
2023/12/16 02:22:01;;;;;;;42.20;38.40;;;;;;;0.45;100.00;99646.10;106549;1281;23014;-76
2023/12/16 02:24:31;;;;;;;36.70;33.20;;;;;;;0.45;100.00;99650.52;106552;1281;22540;-78
2023/12/16 02:26:59;;;;;;;36.00;32.70;;;;;;;0.48;100.00;99646.23;106825;1281;24226;-78
2023/12/16 02:29:27;;;;;;;36.00;32.60;;;;;;;0.50;100.00;99646.30;106359;1272;24228;-77
2023/12/16 02:31:55;;;;;;;37.40;33.80;;;;;;;0.51;100.00;99647.55;106361;1275;22592;-79
2023/12/16 02:34:23;;;;;;;40.50;36.70;;;;;;;0.53;100.00;99648.61;106583;1268;25392;-80
2023/12/16 02:36:53;;;;;;;42.20;38.20;;;;;;;0.52;100.00;99652.92;106649;1269;22664;-78
2023/12/16 02:39:21;;;;;;;38.70;34.90;;;;;;;0.52;100.00;99656.97;106780;1281;22621;-81
2023/12/16 02:41:49;;;;;;;35.20;32.10;;;;;;;0.54;100.00;99660.83;106355;1275;22552;-78
2023/12/16 02:44:17;;;;;;;35.80;32.40;;;;;;;0.56;100.00;99665.52;106788;1273;22596;-77
2023/12/16 02:46:45;;;;;;;34.50;31.40;;;;;;;0.55;100.00;99661.56;106920;1281;22659;-76
2023/12/16 02:49:13;;;;;;;32.10;29.00;;;;;;;0.56;100.00;99664.15;106463;1266;22537;-76
2023/12/16 02:51:41;;;;;;;34.40;31.10;;;;;;;0.57;100.00;99664.12;106726;1275;23411;-78
2023/12/16 02:54:09;;;;;;;35.50;32.00;;;;;;;0.59;100.00;99666.39;106353;1277;22519;-77
2023/12/16 02:56:37;;;;;;;36.70;33.60;;;;;;;0.60;100.00;99662.91;106421;1258;24255;-77
2023/12/16 02:59:05;;;;;;;37.10;33.80;;;;;;;0.58;100.00;99662.08;106779;1266;24348;-77
2023/12/16 03:01:33;;;;;;;33.80;30.80;;;;;;;0.57;100.00;99663.10;106391;1278;24290;-77
2023/12/16 03:04:01;;;;;;;33.30;29.90;;;;;;;0.58;100.00;99665.84;106388;1266;26604;-78
2023/12/16 03:06:29;;;;;;;31.80;28.80;;;;;;;0.57;100.00;99666.40;106692;1268;23032;-76
2023/12/16 03:08:57;;;;;;;32.00;28.90;;;;;;;0.58;100.00;99670.54;106381;1280;24212;-78
2023/12/16 03:11:25;;;;;;;32.60;29.50;;;;;;;0.58;100.00;99672.12;106405;1275;22617;-79
2023/12/16 03:13:53;;;;;;;33.40;30.30;;;;;;;0.55;100.00;99679.80;106704;1269;25259;-78
2023/12/16 03:16:21;;;;;;;32.40;29.20;;;;;;;0.53;100.00;99679.83;106684;1281;24205;-78
2023/12/16 03:18:49;;;;;;;34.00;30.40;;;;;;;0.52;100.00;99680.68;106748;1259;24522;-78
2023/12/16 03:21:17;;;;;;;33.30;30.10;;;;;;;0.53;100.00;99678.09;106708;1280;23923;-78
2023/12/16 03:23:46;;;;;;;31.60;28.50;;;;;;;0.55;100.00;99681.13;106725;1281;22553;-78
2023/12/16 03:26:14;;;;;;;31.40;28.10;;;;;;;0.58;100.00;99686.11;106794;1268;22537;-78
2023/12/16 03:28:42;;;;;;;33.00;30.10;;;;;;;0.60;100.00;99689.81;106890;1271;22677;-78
2023/12/16 03:31:10;;;;;;;33.80;30.80;;;;;;;0.59;100.00;99688.29;107106;1273;25489;-77
2023/12/16 03:33:38;;;;;;;33.80;30.70;;;;;;;0.59;100.00;99698.91;106498;1270;22617;-77
2023/12/16 03:36:11;;;;;;;32.10;29.00;;;;;;;0.57;100.00;99701.25;106799;1275;22620;-79
2023/12/16 03:38:42;;;;;;;31.00;28.20;;;;;;;0.59;100.00;99711.86;106795;1278;24378;-79
2023/12/16 03:41:13;;;;;;;32.50;29.30;;;;;;;0.61;100.00;99714.59;106821;1278;22533;-78
2023/12/16 03:43:41;;;;;;;32.20;29.10;;;;;;;0.64;100.00;99713.31;106764;1278;22624;-77
2023/12/16 03:46:09;;;;;;;35.40;31.90;;;;;;;0.61;100.00;99711.70;106481;1281;23946;-78
2023/12/16 03:48:38;;;;;;;31.80;29.00;;;;;;;0.57;100.00;99710.60;106816;1273;22598;-78
2023/12/16 03:51:06;;;;;;;33.00;30.10;;;;;;;0.56;100.00;99706.54;106769;1278;24252;-78
2023/12/16 03:53:34;;;;;;;34.50;31.40;;;;;;;0.55;100.00;99707.75;106728;1283;25260;-78
2023/12/16 03:56:03;;;;;;;32.60;29.30;;;;;;;0.57;100.00;99704.96;106460;1271;25358;-78
2023/12/16 03:58:30;;;;;;;36.50;33.20;;;;;;;0.58;100.00;99703.95;106815;1281;25536;-80
2023/12/16 04:00:59;;;;;;;35.90;32.60;;;;;;;0.59;100.00;99704.58;106930;1275;22491;-77
2023/12/16 04:03:27;;;;;;;37.00;33.80;;;;;;;0.57;100.00;99707.09;106842;1281;26674;-78
2023/12/16 04:05:55;;;;;;;37.50;34.00;;;;;;;0.56;100.00;99711.65;106796;1266;22589;-77
2023/12/16 04:08:23;;;;;;;34.40;31.40;;;;;;;0.56;100.00;99708.76;106826;1278;22490;-77
2023/12/16 04:10:51;;;;;;;34.00;30.80;;;;;;;0.59;100.00;99709.69;106793;1281;24186;-77
2023/12/16 04:13:19;;;;;;;35.10;32.00;;;;;;;0.60;100.00;99705.52;106729;1281;22701;-77
2023/12/16 04:15:52;;;;;;;38.30;35.00;;;;;;;0.60;100.00;99697.53;106341;1270;22728;-77
2023/12/16 04:18:21;;;;;;;39.90;36.50;;;;;;;0.57;100.00;99694.00;106373;1259;24129;-77
2023/12/16 04:20:49;;;;;;;36.10;32.70;;;;;;;0.56;100.00;99691.17;106448;1275;24445;-77
2023/12/16 04:23:17;;;;;;;37.50;34.30;;;;;;;0.56;100.00;99691.81;106402;1274;22681;-78
2023/12/16 04:25:45;;;;;;;36.70;33.10;;;;;;;0.59;100.00;99686.34;106858;1272;25433;-76
2023/12/16 04:28:13;;;;;;;37.10;33.70;;;;;;;0.63;100.00;99681.60;106783;1281;22534;-77
2023/12/16 04:30:41;;;;;;;35.80;32.70;;;;;;;0.64;100.00;99684.66;106591;1275;22817;-79
2023/12/16 04:33:09;;;;;;;39.00;35.50;;;;;;;0.67;100.00;99685.74;106736;1281;22540;-77
2023/12/16 04:35:37;;;;;;;40.40;36.70;;;;;;;0.67;100.00;99681.76;106615;1281;22540;-78
2023/12/16 04:38:05;;;;;;;38.90;35.60;;;;;;;0.67;100.00;99688.05;106753;1271;24232;-78
2023/12/16 04:40:33;;;;;;;36.00;32.80;;;;;;;0.65;100.00;99692.86;106455;1272;22531;-76
2023/12/16 04:43:01;;;;;;;34.80;31.50;;;;;;;0.66;100.00;99687.86;106404;1272;22679;-77
2023/12/16 04:45:29;;;;;;;36.40;33.20;;;;;;;0.67;100.00;99695.06;106306;1278;22630;-77
2023/12/16 04:47:57;;;;;;;41.60;38.00;;;;;;;0.68;100.00;99702.59;106412;1271;24298;-77
2023/12/16 04:50:26;;;;;;;41.90;38.20;;;;;;;0.65;100.00;99707.48;106767;1270;23295;-78
2023/12/16 04:52:54;;;;;;;39.00;35.50;;;;;;;0.66;100.00;99708.61;106342;1278;23544;-77
2023/12/16 04:55:22;;;;;;;39.00;35.60;;;;;;;0.70;100.00;99707.78;106382;1277;24346;-77
2023/12/16 04:57:50;;;;;;;37.70;34.20;;;;;;;0.75;100.00;99706.84;106691;1271;22561;-77
2023/12/16 05:00:18;;;;;;;36.00;32.80;;;;;;;0.80;100.00;99701.63;106698;1278;22695;-77
2023/12/16 05:02:47;;;;;;;40.40;37.00;;;;;;;0.82;100.00;99701.88;106474;1278;22534;-78
2023/12/16 05:05:15;;;;;;;41.90;38.40;;;;;;;0.82;100.00;99706.34;106751;1278;24303;-78
2023/12/16 05:07:43;;;;;;;40.80;37.30;;;;;;;0.81;100.00;99715.77;106703;1271;22655;-78
2023/12/16 05:10:11;;;;;;;37.40;34.10;;;;;;;0.83;100.00;99713.45;106716;1274;23226;-79
2023/12/16 05:12:40;;;;;;;37.40;34.00;;;;;;;0.85;100.00;99714.09;106771;1270;24365;-78
2023/12/16 05:15:09;;;;;;;37.80;34.20;;;;;;;0.88;100.00;99717.05;107450;1266;22586;-78
2023/12/16 05:17:37;;;;;;;37.70;34.60;;;;;;;0.90;100.00;99712.73;106895;1272;24328;-78
2023/12/16 05:20:06;;;;;;;39.40;35.80;;;;;;;0.89;100.00;99721.09;106892;1281;22587;-77
2023/12/16 05:22:34;;;;;;;39.10;35.70;;;;;;;0.88;100.00;99720.33;106864;1281;25481;-78
2023/12/16 05:25:03;;;;;;;33.40;30.20;;;;;;;0.87;100.00;99720.99;106708;1275;25587;-76
2023/12/16 05:27:32;;;;;;;31.80;28.80;;;;;;;0.86;100.00;99723.08;106754;1275;25365;-76
2023/12/16 05:30:02;;;;;;;30.60;27.90;;;;;;;0.86;100.00;99723.40;106797;1270;25281;-76
2023/12/16 05:32:31;;;;;;;30.50;27.50;;;;;;;0.87;100.00;99728.36;106365;1266;22689;-77
2023/12/16 05:34:59;;;;;;;30.30;27.40;;;;;;;0.87;100.00;99724.39;106449;1269;24228;-78
2023/12/16 05:37:27;;;;;;;30.80;28.00;;;;;;;0.87;100.00;99730.10;106769;1266;25383;-78
2023/12/16 05:39:55;;;;;;;29.20;26.50;;;;;;;0.89;100.00;99737.56;106842;1281;23292;-79
2023/12/16 05:42:24;;;;;;;29.70;26.90;;;;;;;0.94;100.00;99740.73;106764;1275;22657;-79
2023/12/16 05:44:52;;;;;;;30.10;27.40;;;;;;;0.93;100.00;99737.22;106703;1272;22545;-78
2023/12/16 05:47:20;;;;;;;30.90;28.10;;;;;;;0.92;100.00;99744.36;106752;1274;22544;-78
2023/12/16 05:49:48;;;;;;;31.00;28.10;;;;;;;0.91;100.00;99742.39;106661;1272;22681;-78
2023/12/16 05:52:16;;;;;;;30.00;27.30;;;;;;;0.87;100.00;99745.83;106714;1281;22545;-78
2023/12/16 05:54:44;;;;;;;29.40;26.50;;;;;;;0.89;100.00;99758.34;106659;1268;23934;-78
2023/12/16 05:57:12;;;;;;;30.20;27.40;;;;;;;0.90;100.00;99760.47;106655;1272;25399;-78
2023/12/16 05:59:40;;;;;;;28.20;25.50;;;;;;;0.91;100.00;99763.79;106753;1271;24263;-79
2023/12/16 06:02:07;;;;;;;30.70;27.80;;;;;;;0.95;100.00;99772.48;106829;1266;25256;-81
2023/12/16 06:04:36;;;;;;;32.60;29.60;;;;;;;0.97;100.00;99767.86;106641;1271;25426;-79
2023/12/16 06:07:04;;;;;;;33.90;30.90;;;;;;;0.96;100.00;99768.64;106665;1271;24429;-79
2023/12/16 06:09:32;;;;;;;34.10;30.90;;;;;;;0.97;100.00;99766.77;106649;1281;24213;-79
2023/12/16 06:12:00;;;;;;;29.30;26.50;;;;;;;0.99;100.00;99770.18;106698;1281;22547;-79
2023/12/16 06:14:28;;;;;;;28.40;25.80;;;;;;;1.01;100.00;99768.95;106636;1281;22651;-79
2023/12/16 06:16:56;;;;;;;31.90;28.90;;;;;;;1.01;100.00;99769.92;106708;1281;22564;-79
2023/12/16 06:19:24;;;;;;;34.20;31.30;;;;;;;1.00;100.00;99770.60;106820;1281;24474;-77
2023/12/16 06:21:55;;;;;;;35.40;32.10;;;;;;;0.95;100.00;99770.23;106845;1275;22660;-79
2023/12/16 06:24:23;;;;;;;31.20;28.40;;;;;;;0.96;100.00;99774.82;106876;1270;25448;-78
2023/12/16 06:26:53;;;;;;;30.70;27.80;;;;;;;0.98;100.00;99779.08;106738;1282;22573;-81
2023/12/16 06:29:21;;;;;;;31.30;28.40;;;;;;;1.00;100.00;99781.95;106510;1268;24256;-78
2023/12/16 06:31:49;;;;;;;31.00;28.20;;;;;;;0.99;100.00;99779.09;106823;1278;22619;-77
2023/12/16 06:34:18;;;;;;;30.60;27.90;;;;;;;1.01;100.00;99781.36;106826;1269;22554;-78
2023/12/16 06:36:47;;;;;;;31.80;29.10;;;;;;;1.03;100.00;99783.73;106293;1273;22540;-78
2023/12/16 06:39:15;;;;;;;31.10;28.20;;;;;;;1.01;100.00;99784.05;106584;1281;24383;-78
2023/12/16 06:41:43;;;;;;;30.50;27.80;;;;;;;1.01;100.00;99787.85;106604;1270;25259;-77
2023/12/16 06:44:11;;;;;;;31.90;29.10;;;;;;;1.01;100.00;99789.97;106596;1281;26093;-76
2023/12/16 06:46:39;;;;;;;34.40;31.10;;;;;;;1.06;100.00;99797.69;106374;1269;22649;-76
2023/12/16 06:49:07;;;;;;;35.60;32.40;;;;;;;1.13;100.00;99799.06;106356;1260;25266;-76
2023/12/16 06:51:35;;;;;;;36.70;33.60;;;;;;;1.20;100.00;99799.13;106387;1278;25436;-77
2023/12/16 06:54:04;;;;;;;34.50;31.50;;;;;;;1.22;100.00;99794.56;106338;1280;22576;-77
2023/12/16 06:56:32;;;;;;;39.10;35.60;;;;;;;1.22;100.00;99790.69;106732;1270;24249;-77
2023/12/16 06:59:00;;;;;;;37.90;34.50;;;;;;;1.22;100.00;99792.77;106736;1272;23788;-78
2023/12/16 07:01:28;;;;;;;39.50;35.90;;;;;;;1.25;100.00;99794.06;106659;1272;22551;-77
2023/12/16 07:03:56;;;;;;;35.20;32.00;;;;;;;1.27;100.00;99791.84;106789;1266;25344;-78
2023/12/16 07:06:24;;;;;;;42.40;38.70;;;;;;;1.31;100.00;99786.52;106752;1279;24018;-79
2023/12/16 07:08:52;;;;;;;36.00;32.70;;;;;;;1.35;100.00;99789.70;106783;1275;22576;-79
2023/12/16 07:11:20;;;;;;;40.30;36.80;;;;;;;1.40;100.00;99793.00;106788;1281;24435;-77
2023/12/16 07:13:49;;;;;;;43.90;40.40;;;;;;;1.47;100.00;99796.77;106408;1279;22639;-77
2023/12/16 07:16:17;;;;;;;40.10;36.70;;;;;;;1.49;100.00;99801.44;106668;1268;22629;-77
2023/12/16 07:18:45;;;;;;;41.70;37.90;;;;;;;1.49;100.00;99800.74;106708;1281;22549;-78
2023/12/16 07:21:13;;;;;;;38.30;34.80;;;;;;;1.51;100.00;99798.98;106676;1281;22543;-77
2023/12/16 07:23:41;;;;;;;42.40;38.90;;;;;;;1.51;100.00;99804.98;106359;1278;22544;-79
2023/12/16 07:26:09;;;;;;;37.40;34.10;;;;;;;1.52;100.00;99809.08;106804;1281;24215;-79
2023/12/16 07:28:37;;;;;;;40.70;37.10;;;;;;;1.56;100.00;99809.14;106835;1270;23498;-79
2023/12/16 07:31:05;;;;;;;45.20;41.40;;;;;;;1.61;100.00;99807.98;106747;1276;22489;-79
2023/12/16 07:33:37;;;;;;;42.30;38.50;;;;;;;1.62;100.00;99803.63;106796;1269;22629;-77
2023/12/16 07:36:06;;;;;;;46.20;42.20;;;;;;;1.58;100.00;99807.45;106865;1277;24209;-77
2023/12/16 07:38:34;;;;;;;41.90;38.10;;;;;;;1.53;100.00;99804.67;106492;1281;24362;-78
2023/12/16 07:41:02;;;;;;;43.20;39.20;;;;;;;1.59;100.00;99813.17;106797;1278;24370;-80
2023/12/16 07:43:30;;;;;;;47.10;43.00;;;;;;;1.63;100.00;99813.69;106584;1281;22592;-79
2023/12/16 07:45:58;;;;;;;50.80;46.50;;;;;;;1.68;100.00;99813.11;106812;1281;22543;-78
2023/12/16 07:48:26;;;;;;;55.50;50.50;;;;;;;1.73;100.00;99812.29;106593;1282;22544;-81
2023/12/16 07:50:55;;;;;;;55.40;50.40;;;;;;;1.72;100.00;99811.02;106926;1283;22550;-80
2023/12/16 07:53:23;;;;;;;53.30;48.60;;;;;;;1.69;100.00;99816.67;107778;1282;25466;-80
2023/12/16 07:55:51;;;;;;;43.50;39.40;;;;;;;1.69;100.00;99812.82;107121;1283;22644;-79
2023/12/16 07:58:19;;;;;;;59.40;52.90;;;;;;;1.72;100.00;99817.55;106826;1281;23907;-80
2023/12/16 08:00:48;;;;;;;77.50;55.00;;;;;;;1.73;100.00;99818.75;106861;1281;22557;-80
2023/12/16 08:03:16;;;;;;;54.80;49.10;;;;;;;1.77;100.00;99822.58;106861;1281;23898;-79
2023/12/16 08:05:44;;;;;;;51.70;46.60;;;;;;;1.75;100.00;99825.80;106810;1280;25496;-79
2023/12/16 08:08:12;;;;;;;55.70;50.50;;;;;;;1.75;100.00;99824.56;106754;1282;22558;-79
2023/12/16 08:10:40;;;;;;;59.50;53.60;;;;;;;1.75;100.00;99827.10;106376;1282;25275;-79
2023/12/16 08:13:09;;;;;;;58.60;52.90;;;;;;;1.75;100.00;99833.48;107054;1272;25464;-79
2023/12/16 08:15:37;;;;;;;43.60;39.80;;;;;;;1.77;100.00;99833.21;107485;1275;22540;-78
2023/12/16 08:18:07;;;;;;;63.20;57.50;;;;;;;1.76;100.00;99832.92;107195;1283;22635;-79
2023/12/16 08:20:35;;;;;;;64.20;58.40;;;;;;;1.77;100.00;99830.71;106874;1281;26741;-79
2023/12/16 08:23:05;;;;;;;69.50;63.50;;;;;;;1.76;100.00;99832.84;106704;1281;22534;-80
2023/12/16 08:25:37;;;;;;;72.50;65.80;;;;;;;1.76;100.00;99830.86;106893;1282;22689;-79
2023/12/16 08:28:05;;;;;;;71.10;64.00;;;;;;;1.76;100.00;99834.25;106410;1279;22688;-78
2023/12/16 08:30:33;;;;;;;70.70;64.10;;;;;;;1.78;100.00;99834.85;106666;1267;22660;-80
2023/12/16 08:33:01;;;;;;;74.90;68.30;;;;;;;1.80;100.00;99830.70;106880;1273;22601;-80
2023/12/16 08:35:34;;;;;;;65.20;59.20;;;;;;;1.83;100.00;99826.80;106754;1282;26613;-81
2023/12/16 08:38:05;;;;;;;62.80;57.00;;;;;;;1.84;100.00;99833.70;106264;1277;22714;-82
2023/12/16 08:40:33;;;;;;;65.40;59.20;;;;;;;1.86;100.00;99837.77;106374;1280;24504;-79
2023/12/16 08:43:01;;;;;;;55.80;50.50;;;;;;;1.87;100.00;99839.73;106276;1273;22558;-80
2023/12/16 08:45:29;;;;;;;63.20;57.10;;;;;;;1.90;100.00;99844.14;106457;1283;22603;-80
2023/12/16 08:47:58;;;;;;;54.30;49.20;;;;;;;1.93;100.00;99843.05;106671;1282;24265;-82
2023/12/16 08:50:27;;;;;;;48.70;43.90;;;;;;;1.99;100.00;99843.49;106638;1274;22559;-79
2023/12/16 08:52:55;;;;;;;61.90;56.00;;;;;;;2.00;100.00;99840.59;106739;1279;25443;-79
2023/12/16 08:55:24;;;;;;;51.10;46.60;;;;;;;1.98;100.00;99838.82;106734;1283;24387;-79
2023/12/16 08:57:52;;;;;;;50.20;45.60;;;;;;;2.00;100.00;99842.35;106691;1283;24873;-77
2023/12/16 09:00:20;;;;;;;40.60;36.70;;;;;;;2.03;100.00;99837.31;106668;1261;22600;-76
2023/12/16 09:02:49;;;;;;;39.30;35.50;;;;;;;2.06;100.00;99837.29;106463;1278;25620;-77
2023/12/16 09:05:19;;;;;;;43.70;39.80;;;;;;;2.10;100.00;99838.45;106669;1270;22542;-77
2023/12/16 09:07:47;;;;;;;43.50;39.00;;;;;;;2.11;100.00;99826.22;106628;1282;22664;-79
2023/12/16 09:10:15;;;;;;;45.30;40.90;;;;;;;2.07;100.00;99828.59;106631;1283;25378;-79
2023/12/16 09:12:43;;;;;;;40.70;36.70;;;;;;;2.03;100.00;99827.05;106569;1267;22652;-81
2023/12/16 09:15:12;;;;;;;41.70;37.70;;;;;;;2.07;100.00;99834.51;106558;1283;22621;-78
2023/12/16 09:17:40;;;;;;;53.30;48.50;;;;;;;2.07;100.00;99834.06;106681;1276;22554;-79
2023/12/16 09:20:09;;;;;;;63.40;57.70;;;;;;;2.08;100.00;99835.82;106718;1270;25411;-80
2023/12/16 09:22:37;;;;;;;46.70;42.50;;;;;;;2.10;100.00;99842.50;106762;1275;22547;-76
2023/12/16 09:25:08;;;;;;;34.60;31.30;;;;;;;2.12;100.00;99844.21;106411;1276;22544;-78
2023/12/16 09:27:36;;;;;;;39.20;35.60;;;;;;;2.11;100.00;99843.36;106983;1270;22597;-78
2023/12/16 09:30:06;;;;;;;33.50;30.20;;;;;;;2.15;100.00;99843.10;106417;1273;24266;-79
2023/12/16 09:32:34;;;;;;;30.90;28.00;;;;;;;2.16;100.00;99844.95;106822;1282;24222;-78
2023/12/16 09:35:03;;;;;;;74.60;61.50;;;;;;;2.15;100.00;99858.16;106443;1270;25625;-79
2023/12/16 09:37:31;;;;;;;40.30;36.30;;;;;;;2.13;100.00;99857.04;106700;1279;22567;-80
2023/12/16 09:39:59;;;;;;;34.00;30.70;;;;;;;2.15;100.00;99864.23;106819;1276;22558;-78
2023/12/16 09:42:29;;;;;;;31.10;28.00;;;;;;;2.17;100.00;99872.41;106500;1276;25334;-78
2023/12/16 09:44:57;;;;;;;34.00;30.90;;;;;;;2.19;100.00;99870.20;106504;1281;25269;-78
2023/12/16 09:47:25;;;;;;;30.50;27.50;;;;;;;2.20;100.00;99860.56;106442;1267;22548;-77
2023/12/16 09:49:59;;;;;;;38.40;34.40;;;;;;;2.23;100.00;99863.89;106449;1270;24243;-78
2023/12/16 09:52:28;;;;;;;35.50;32.00;;;;;;;2.27;100.00;99865.46;106655;1280;152583;-77
2023/12/16 09:54:56;;;;;;;30.20;27.30;;;;;;;2.27;100.00;99868.51;106372;1273;22603;-77
2023/12/16 09:57:25;;;;;;;29.30;26.60;;;;;;;2.27;100.00;99865.92;106679;1267;24234;-78
2023/12/16 09:59:56;;;;;;;27.80;25.10;;;;;;;2.30;100.00;99864.25;106478;1281;22547;-77
2023/12/16 10:02:27;;;;;;;27.60;24.80;;;;;;;2.31;100.00;99862.50;106471;1266;25462;-78
2023/12/16 10:04:59;;;;;;;27.90;25.20;;;;;;;2.33;100.00;99854.61;106883;1267;22551;-77
2023/12/16 10:07:30;;;;;;;28.70;26.00;;;;;;;2.35;100.00;99856.52;106401;1267;23931;-77
2023/12/16 10:09:58;;;;;;;30.20;27.30;;;;;;;2.35;100.00;99863.83;106406;1268;24033;-77
2023/12/16 10:12:33;;;;;;;25.90;23.50;;;;;;;2.36;100.00;99857.95;106876;1281;22791;-77
2023/12/16 10:15:02;;;;;;;29.90;27.20;;;;;;;2.40;100.00;99847.86;106544;1281;22578;-78
2023/12/16 10:17:31;;;;;;;30.10;27.40;;;;;;;2.43;100.00;99841.45;106697;1273;23132;-79
2023/12/16 10:19:59;;;;;;;32.00;29.20;;;;;;;2.45;100.00;99838.02;106668;1281;22554;-79
2023/12/16 10:22:28;;;;;;;28.60;25.90;;;;;;;2.44;100.00;99833.84;106665;1277;22606;-78
2023/12/16 10:24:56;;;;;;;29.10;26.30;;;;;;;2.47;100.00;99841.78;106714;1270;23439;-78
2023/12/16 10:27:24;;;;;;;29.90;27.10;;;;;;;2.49;100.00;99840.48;106819;1264;22544;-79
2023/12/16 10:29:52;;;;;;;30.90;27.70;;;;;;;2.51;100.00;99843.77;106860;1260;23264;-78
2023/12/16 10:32:37;;;;;;;29.50;26.70;;;;;;;2.50;100.00;99844.02;106673;1281;22662;-78
2023/12/16 10:35:06;;;;;;;27.50;24.80;;;;;;;2.52;100.00;99839.80;106668;1276;25378;-77
2023/12/16 10:37:36;;;;;;;25.80;23.30;;;;;;;2.55;100.00;99843.45;107029;1279;22638;-77
2023/12/16 10:40:09;;;;;;;27.60;24.80;;;;;;;2.59;100.00;99842.41;107230;1266;25372;-76
2023/12/16 10:42:38;;;;;;;28.70;26.00;;;;;;;2.61;100.00;99848.19;106457;1280;22550;-77
2023/12/16 10:45:07;;;;;;;30.80;27.70;;;;;;;2.61;100.00;99842.70;106376;1275;22534;-79
2023/12/16 10:47:37;;;;;;;36.90;29.50;;;;;;;2.62;100.00;99845.08;106857;1270;25272;-77
2023/12/16 10:50:09;;;;;;;29.60;25.10;;;;;;;2.64;100.00;99840.52;107222;1280;23928;-76
2023/12/16 10:52:51;;;;;;;27.60;24.90;;;;;;;2.65;100.00;99839.52;106362;1259;22750;-77
2023/12/16 10:55:40;;;;;;;29.20;26.40;;;;;;;2.68;100.00;99835.89;107051;1267;22555;-79
2023/12/16 10:58:21;;;;;;;29.70;27.00;;;;;;;2.71;100.00;99832.09;106792;1277;23893;-79
2023/12/16 11:00:54;;;;;;;30.20;27.10;;;;;;;2.71;100.00;99832.14;106724;1275;24637;-78
2023/12/16 11:03:33;;;;;;;30.60;27.40;;;;;;;2.71;100.00;99828.25;106802;1278;22718;-79
2023/12/16 11:06:16;;;;;;;29.70;26.90;;;;;;;2.71;100.00;99825.50;106802;1267;22630;-78
2023/12/16 11:08:45;;;;;;;29.40;26.60;;;;;;;2.71;100.00;99824.23;106747;1266;22667;-78
2023/12/16 11:11:16;;;;;;;32.90;29.90;;;;;;;2.75;100.00;99818.22;106400;1262;23932;-78
2023/12/16 11:13:44;;;;;;;31.70;28.70;;;;;;;2.75;100.00;99813.75;106689;1274;22550;-78
2023/12/16 11:16:19;;;;;;;31.20;28.30;;;;;;;2.74;100.00;99809.36;106748;1275;22472;-78